Time;durP1;ratioP1;P1;durP2;ratioP2;P2;SDS_P1;SDS_P2;PMS_P1;PMS_P2;Temp;Humidity;BMP_temperature;BMP_pressure;BME280_temperature;BME280_humidity;BME280_pressure;Samples;Min_cycle;Max_cycle;Signal;HPM_P1;HPM_P2
2023/12/20 00:01:47;;;;;;;10.33;5.70;;;6.00;1.00;;;;;;5026629;28;20709;-74
2023/12/20 00:04:12;;;;;;;10.33;5.30;;;6.00;1.00;;;;;;5031370;28;20268;-73
2023/12/20 00:06:38;;;;;;;10.93;4.87;;;6.00;1.00;;;;;;5030697;28;20597;-73
2023/12/20 00:09:03;;;;;;;11.23;5.37;;;6.00;1.00;;;;;;5032125;28;20232;-74
2023/12/20 00:11:29;;;;;;;10.23;4.90;;;6.00;1.00;;;;;;5030043;28;20232;-74
2023/12/20 00:13:54;;;;;;;10.53;5.30;;;6.00;1.00;;;;;;5028929;28;20265;-72
2023/12/20 00:16:20;;;;;;;10.67;5.13;;;6.00;1.00;;;;;;5029435;28;20202;-73
2023/12/20 00:18:45;;;;;;;8.80;5.37;;;6.00;1.00;;;;;;5023050;28;20193;-74
2023/12/20 00:21:11;;;;;;;11.23;5.47;;;6.00;1.00;;;;;;5030109;28;20178;-74
2023/12/20 00:23:36;;;;;;;13.43;5.03;;;6.00;1.00;;;;;;5030708;28;20330;-74
2023/12/20 00:26:02;;;;;;;8.60;4.73;;;6.00;1.00;;;;;;5028413;28;20233;-73
2023/12/20 00:28:28;;;;;;;11.00;5.50;;;6.00;1.00;;;;;;5030732;28;20208;-73
2023/12/20 00:30:53;;;;;;;12.60;5.17;;;6.00;1.00;;;;;;5030336;28;20563;-74
2023/12/20 00:33:19;;;;;;;10.97;5.00;;;6.00;1.00;;;;;;5030519;28;20186;-74
2023/12/20 00:35:44;;;;;;;10.00;4.90;;;6.00;1.00;;;;;;5029354;28;20257;-75
2023/12/20 00:38:11;;;;;;;8.30;4.70;;;6.00;1.00;;;;;;5030913;28;20177;-75
2023/12/20 00:40:36;;;;;;;9.23;4.53;;;6.00;1.00;;;;;;5012796;28;20599;-74
2023/12/20 00:43:02;;;;;;;9.50;4.83;;;6.00;1.00;;;;;;5031376;28;20467;-73
2023/12/20 00:45:28;;;;;;;8.37;5.20;;;6.00;1.00;;;;;;5023012;28;20210;-72
2023/12/20 00:47:53;;;;;;;11.23;4.90;;;6.00;1.00;;;;;;5030711;28;20178;-74
2023/12/20 00:50:19;;;;;;;8.70;5.10;;;6.00;1.00;;;;;;5029978;28;20556;-72
2023/12/20 00:52:44;;;;;;;7.63;4.83;;;6.00;1.00;;;;;;5028028;28;20729;-74
2023/12/20 00:55:10;;;;;;;12.37;5.70;;;6.00;1.00;;;;;;5029008;28;20209;-74
2023/12/20 00:57:35;;;;;;;8.43;4.73;;;6.00;1.00;;;;;;5030047;28;20182;-74
2023/12/20 01:00:01;;;;;;;10.93;5.63;;;6.00;1.00;;;;;;5030900;28;20182;-73
2023/12/20 01:02:26;;;;;;;12.20;6.23;;;6.00;1.00;;;;;;5030878;28;20217;-73
2023/12/20 01:04:52;;;;;;;12.87;6.23;;;6.00;1.00;;;;;;5027004;28;20217;-70
2023/12/20 01:07:18;;;;;;;12.20;6.87;;;6.00;1.00;;;;;;5025597;28;20190;-73
2023/12/20 01:09:43;;;;;;;12.53;6.90;;;6.00;1.00;;;;;;5030549;28;20758;-74
2023/12/20 01:12:08;;;;;;;11.57;7.03;;;6.10;1.00;;;;;;5030433;28;20204;-74
2023/12/20 01:14:34;;;;;;;13.50;7.23;;;6.10;1.00;;;;;;5029225;28;20221;-73
2023/12/20 01:17:00;;;;;;;13.00;7.27;;;6.10;1.00;;;;;;5029937;28;20285;-74
2023/12/20 01:19:26;;;;;;;13.13;7.83;;;6.10;1.00;;;;;;5030640;28;20220;-74
2023/12/20 01:21:52;;;;;;;10.10;6.53;;;6.10;1.00;;;;;;5027852;28;20182;-76
2023/12/20 01:24:17;;;;;;;15.13;7.73;;;6.00;1.00;;;;;;5030045;28;20425;-74
2023/12/20 01:26:43;;;;;;;13.77;6.80;;;6.00;1.00;;;;;;5030120;28;20206;-74
2023/12/20 01:29:09;;;;;;;10.73;6.37;;;6.00;1.00;;;;;;5021565;28;20181;-74
2023/12/20 01:31:35;;;;;;;11.40;6.83;;;6.00;1.00;;;;;;5026677;28;20198;-73
2023/12/20 01:34:00;;;;;;;12.33;6.20;;;6.00;1.00;;;;;;5022893;28;20417;-72
2023/12/20 01:36:26;;;;;;;10.00;6.40;;;6.00;1.00;;;;;;5012525;28;20595;-74
2023/12/20 01:38:52;;;;;;;10.83;6.10;;;6.00;1.00;;;;;;5029387;28;20213;-73
2023/12/20 01:41:17;;;;;;;11.90;7.13;;;6.00;1.00;;;;;;5030338;28;20464;-73
2023/12/20 01:43:43;;;;;;;11.37;6.00;;;5.90;1.00;;;;;;5027387;28;20196;-75
2023/12/20 01:46:09;;;;;;;9.80;5.67;;;5.90;1.00;;;;;;5029015;28;20198;-73
2023/12/20 01:48:35;;;;;;;10.93;5.90;;;5.90;1.00;;;;;;5022056;28;20592;-73
2023/12/20 01:51:01;;;;;;;8.50;5.07;;;6.00;1.00;;;;;;5028782;28;20193;-74
2023/12/20 01:53:28;;;;;;;10.90;5.73;;;6.00;1.00;;;;;;5029928;28;20780;-74
2023/12/20 01:55:56;;;;;;;9.63;5.57;;;6.00;1.00;;;;;;5029074;28;20471;-74
2023/12/20 01:58:22;;;;;;;7.23;4.60;;;6.00;1.00;;;;;;5029259;28;20439;-72
2023/12/20 02:00:48;;;;;;;7.37;4.50;;;6.00;1.00;;;;;;5028009;28;20532;-74
2023/12/20 02:03:14;;;;;;;6.10;4.00;;;6.40;1.00;;;;;;5029386;28;20542;-75
2023/12/20 02:05:40;;;;;;;10.30;4.70;;;5.90;1.00;;;;;;5028699;28;20223;-74
2023/12/20 02:08:07;;;;;;;6.50;4.37;;;6.00;1.00;;;;;;5029373;28;20182;-71
2023/12/20 02:10:32;;;;;;;8.07;4.00;;;5.90;1.00;;;;;;5028796;28;20428;-73
2023/12/20 02:12:58;;;;;;;7.10;4.50;;;5.90;1.00;;;;;;5027898;28;20716;-73
2023/12/20 02:15:24;;;;;;;7.97;4.63;;;6.00;1.00;;;;;;5027055;28;20688;-73
2023/12/20 02:17:50;;;;;;;7.83;4.10;;;6.00;1.00;;;;;;5028658;28;20273;-74
2023/12/20 02:20:15;;;;;;;8.03;4.33;;;6.20;1.00;;;;;;5029331;28;20660;-73
2023/12/20 02:22:41;;;;;;;7.37;4.40;;;6.00;1.00;;;;;;5028799;28;20432;-75
2023/12/20 02:25:07;;;;;;;7.20;4.10;;;6.00;1.00;;;;;;5023051;28;20205;-73
2023/12/20 02:27:32;;;;;;;7.57;4.70;;;6.00;1.00;;;;;;5029638;28;20194;-74
2023/12/20 02:29:58;;;;;;;7.63;4.50;;;6.00;1.00;;;;;;5028419;28;20956;-73
2023/12/20 02:32:28;;;;;;;6.63;4.23;;;6.40;1.00;;;;;;5029604;28;20623;-74
2023/12/20 02:34:55;;;;;;;6.23;3.80;;;6.00;1.00;;;;;;5028582;28;20711;-74
2023/12/20 02:37:20;;;;;;;8.13;4.50;;;6.00;1.00;;;;;;5027594;28;20472;-72
2023/12/20 02:39:45;;;;;;;7.83;4.70;;;6.00;1.00;;;;;;5028677;28;20421;-75
2023/12/20 02:42:11;;;;;;;8.23;4.73;;;6.00;1.00;;;;;;5029327;28;20640;-73
2023/12/20 02:44:37;;;;;;;7.00;4.50;;;6.00;1.00;;;;;;5028337;28;20213;-73
2023/12/20 02:47:03;;;;;;;7.17;4.20;;;6.50;1.00;;;;;;5021265;28;20209;-74
2023/12/20 02:49:28;;;;;;;10.23;5.20;;;6.00;1.00;;;;;;5028623;28;20197;-74
2023/12/20 02:51:54;;;;;;;7.57;4.20;;;6.00;1.00;;;;;;5027969;28;20425;-73
2023/12/20 02:54:19;;;;;;;10.03;4.97;;;6.00;1.00;;;;;;5027662;28;20721;-71
2023/12/20 02:56:45;;;;;;;7.90;4.20;;;6.10;1.00;;;;;;5028772;28;20623;-74
2023/12/20 02:59:10;;;;;;;8.83;4.13;;;6.00;1.00;;;;;;5029304;28;20714;-73
2023/12/20 03:01:42;;;;;;;13.47;3.77;;;6.00;1.00;;;;;;5029080;28;20190;-72
2023/12/20 03:04:08;;;;;;;5.50;3.40;;;6.00;1.00;;;;;;5021498;28;20209;-73
2023/12/20 03:06:33;;;;;;;6.43;4.10;;;5.90;1.00;;;;;;5010799;28;20484;-73
2023/12/20 03:08:59;;;;;;;9.87;4.13;;;6.20;1.00;;;;;;5021755;28;20246;-73
2023/12/20 03:11:28;;;;;;;7.50;3.50;;;5.90;1.00;;;;;;5029187;28;20241;-73
2023/12/20 03:13:54;;;;;;;4.50;3.17;;;6.10;1.00;;;;;;5027977;28;20186;-72
2023/12/20 03:16:19;;;;;;;6.70;3.30;;;6.00;1.00;;;;;;5028838;28;21052;-73
2023/12/20 03:18:45;;;;;;;9.03;3.97;;;6.00;1.00;;;;;;5028580;28;20198;-72
2023/12/20 03:21:10;;;;;;;6.30;3.20;;;6.00;1.00;;;;;;5027806;28;20260;-73
2023/12/20 03:23:36;;;;;;;5.17;3.47;;;6.40;1.00;;;;;;5029132;28;20193;-74
2023/12/20 03:26:01;;;;;;;4.40;3.10;;;6.00;1.00;;;;;;5027825;28;20206;-74
2023/12/20 03:28:27;;;;;;;6.47;3.17;;;6.10;1.00;;;;;;5028710;28;20200;-74
2023/12/20 03:30:53;;;;;;;5.40;3.67;;;6.00;1.00;;;;;;5009546;28;20757;-74
2023/12/20 03:33:18;;;;;;;5.13;3.60;;;6.10;1.00;;;;;;5011594;28;20275;-74
2023/12/20 03:35:44;;;;;;;4.90;3.20;;;6.10;1.00;;;;;;5027760;28;20216;-73
2023/12/20 03:38:10;;;;;;;4.70;3.27;;;6.30;1.00;;;;;;5028228;28;20194;-73
2023/12/20 03:40:35;;;;;;;7.03;3.27;;;6.30;1.00;;;;;;5024019;28;20655;-74
2023/12/20 03:43:01;;;;;;;3.83;3.10;;;6.30;1.00;;;;;;5028616;28;20274;-75
2023/12/20 03:45:26;;;;;;;4.03;3.03;;;6.10;1.00;;;;;;5028409;28;20202;-73
2023/12/20 03:47:55;;;;;;;7.77;3.30;;;6.00;1.00;;;;;;5028283;28;20186;-73
2023/12/20 03:50:22;;;;;;;5.03;3.03;;;6.00;1.00;;;;;;5031960;28;20524;-74
2023/12/20 03:52:48;;;;;;;5.10;3.33;;;6.60;1.00;;;;;;5029043;28;20507;-73
2023/12/20 03:55:14;;;;;;;4.57;3.00;;;6.00;1.00;;;;;;5021308;28;20890;-73
2023/12/20 03:57:39;;;;;;;4.60;3.30;;;6.00;1.00;;;;;;5032549;28;20182;-75
2023/12/20 04:00:10;;;;;;;4.40;2.97;;;6.40;1.00;;;;;;5031309;28;20178;-72
2023/12/20 04:02:39;;;;;;;5.43;3.00;;;6.00;1.00;;;;;;5014060;28;20192;-76
2023/12/20 04:05:05;;;;;;;4.80;2.80;;;6.00;1.00;;;;;;5030608;28;20452;-74
2023/12/20 04:07:31;;;;;;;4.00;2.73;;;6.00;1.00;;;;;;5031931;28;20443;-75
2023/12/20 04:09:56;;;;;;;5.10;3.20;;;6.30;1.00;;;;;;5031021;28;20220;-73
2023/12/20 04:12:22;;;;;;;5.33;3.10;;;6.20;1.00;;;;;;5031704;28;20189;-75
2023/12/20 04:14:47;;;;;;;4.07;2.97;;;6.10;1.00;;;;;;5030631;28;20210;-72
2023/12/20 04:17:15;;;;;;;4.73;2.90;;;6.50;1.00;;;;;;5030785;28;20185;-73
2023/12/20 04:19:41;;;;;;;5.43;3.03;;;6.10;1.00;;;;;;5013732;28;20234;-73
2023/12/20 04:22:06;;;;;;;4.60;2.80;;;6.10;1.00;;;;;;5030731;28;20436;-74
2023/12/20 04:24:32;;;;;;;5.17;3.50;;;6.20;1.00;;;;;;5031113;28;20210;-73
2023/12/20 04:26:57;;;;;;;5.03;2.90;;;6.10;1.00;;;;;;5031292;28;20174;-73
2023/12/20 04:29:23;;;;;;;5.90;2.90;;;6.20;1.00;;;;;;5036457;28;20675;-73
2023/12/20 04:31:51;;;;;;;6.50;3.37;;;6.20;1.00;;;;;;5030843;28;20269;-71
2023/12/20 04:34:16;;;;;;;5.93;3.00;;;6.10;1.00;;;;;;5026115;28;20539;-73
2023/12/20 04:36:42;;;;;;;4.57;3.00;;;6.40;1.00;;;;;;5030189;28;20501;-74
2023/12/20 04:39:08;;;;;;;4.80;2.80;;;6.60;1.00;;;;;;5030389;28;20201;-73
2023/12/20 04:41:33;;;;;;;4.57;2.80;;;6.60;1.00;;;;;;5030931;28;20261;-76
2023/12/20 04:43:59;;;;;;;6.63;2.93;;;6.10;1.00;;;;;;5030583;28;20216;-73
2023/12/20 04:46:24;;;;;;;5.13;2.97;;;6.10;1.00;;;;;;5030793;28;20703;-73
2023/12/20 04:48:50;;;;;;;5.70;3.20;;;6.50;1.00;;;;;;5010388;28;20647;-73
2023/12/20 04:51:15;;;;;;;4.23;2.80;;;6.50;1.00;;;;;;5031083;28;20457;-73
2023/12/20 04:53:40;;;;;;;4.40;3.10;;;6.50;1.00;;;;;;5030862;28;20220;-72
2023/12/20 04:56:06;;;;;;;4.67;3.00;;;6.10;1.00;;;;;;5029784;28;20229;-73
2023/12/20 04:58:31;;;;;;;8.20;3.43;;;6.10;1.00;;;;;;5030870;28;20182;-72
2023/12/20 05:00:57;;;;;;;4.87;2.97;;;6.10;1.00;;;;;;5023402;28;20269;-72
2023/12/20 05:03:22;;;;;;;4.50;2.90;;;6.10;1.00;;;;;;5030236;28;20595;-72
2023/12/20 05:05:48;;;;;;;5.03;2.90;;;6.10;1.00;;;;;;5029450;28;20205;-72
2023/12/20 05:08:13;;;;;;;4.00;2.83;;;6.10;1.00;;;;;;5034989;28;20666;-72
2023/12/20 05:10:40;;;;;;;4.00;2.90;;;6.40;1.00;;;;;;5030234;28;20217;-73
2023/12/20 05:13:05;;;;;;;4.23;3.10;;;6.10;1.00;;;;;;5024525;28;20178;-73
2023/12/20 05:15:31;;;;;;;4.60;3.20;;;6.00;1.00;;;;;;5029670;28;20479;-71
2023/12/20 05:17:56;;;;;;;4.00;2.97;;;6.50;1.00;;;;;;5029786;28;20241;-74
2023/12/20 05:20:23;;;;;;;3.47;2.77;;;6.10;1.00;;;;;;5030004;28;20192;-72
2023/12/20 05:22:48;;;;;;;4.10;2.87;;;6.10;1.00;;;;;;5029769;28;20188;-73
2023/12/20 05:25:14;;;;;;;4.33;2.93;;;6.10;1.00;;;;;;5029328;28;20452;-72
2023/12/20 05:27:40;;;;;;;6.77;2.93;;;6.20;1.00;;;;;;5029388;28;20197;-73
2023/12/20 05:30:06;;;;;;;4.40;2.70;;;6.50;1.00;;;;;;5027341;28;20477;-72
2023/12/20 05:32:31;;;;;;;4.83;3.20;;;6.20;1.00;;;;;;5029870;28;20350;-73
2023/12/20 05:34:57;;;;;;;3.87;2.90;;;6.20;1.00;;;;;;5028839;28;20478;-73
2023/12/20 05:37:22;;;;;;;6.70;3.40;;;6.20;1.00;;;;;;5029486;28;20186;-72
2023/12/20 05:39:48;;;;;;;5.43;3.63;;;6.20;1.00;;;;;;5025962;28;20174;-73
2023/12/20 05:42:13;;;;;;;5.03;2.80;;;6.70;1.00;;;;;;5028674;28;20606;-73
2023/12/20 05:44:39;;;;;;;5.10;3.43;;;6.20;1.00;;;;;;5029763;28;20619;-72
2023/12/20 05:47:04;;;;;;;4.23;3.00;;;6.10;1.00;;;;;;5029486;28;20528;-73
2023/12/20 05:49:30;;;;;;;5.90;3.80;;;6.20;1.00;;;;;;5028487;28;20193;-72
2023/12/20 05:51:55;;;;;;;4.10;2.57;;;6.40;1.00;;;;;;5028987;28;20190;-71
2023/12/20 05:54:21;;;;;;;5.53;3.30;;;6.20;1.00;;;;;;5029524;28;20169;-72
2023/12/20 05:56:47;;;;;;;4.33;3.57;;;6.20;1.00;;;;;;5011986;28;20289;-73
2023/12/20 05:59:12;;;;;;;3.60;2.70;;;6.20;1.00;;;;;;5029452;28;21015;-72
2023/12/20 06:01:39;;;;;;;3.93;2.97;;;6.30;1.00;;;;;;5011530;28;20182;-70
2023/12/20 06:04:04;;;;;;;3.90;2.70;;;6.50;1.00;;;;;;5027646;28;20439;-72
2023/12/20 06:06:30;;;;;;;4.63;3.20;;;6.20;1.00;;;;;;5026990;28;20632;-70
2023/12/20 06:08:56;;;;;;;3.70;2.60;;;6.20;1.00;;;;;;5029139;28;20182;-71
2023/12/20 06:11:21;;;;;;;5.40;2.80;;;6.60;1.00;;;;;;5029157;28;20687;-72
2023/12/20 06:13:48;;;;;;;4.40;2.63;;;6.20;1.00;;;;;;5024377;28;20268;-70
2023/12/20 06:16:14;;;;;;;4.00;2.77;;;6.20;1.00;;;;;;5028479;28;20292;-71
2023/12/20 06:18:40;;;;;;;4.40;2.80;;;6.20;1.00;;;;;;5028881;28;20433;-72
2023/12/20 06:21:07;;;;;;;4.23;3.17;;;6.20;1.00;;;;;;5028663;28;20432;-71
2023/12/20 06:23:32;;;;;;;4.43;2.90;;;6.20;1.00;;;;;;5029615;28;20178;-71
2023/12/20 06:25:58;;;;;;;4.30;2.60;;;6.20;1.00;;;;;;5027839;28;20459;-71
2023/12/20 06:28:23;;;;;;;6.80;3.00;;;6.20;1.00;;;;;;5029589;28;20193;-70
2023/12/20 06:30:49;;;;;;;5.27;3.03;;;6.20;1.00;;;;;;5029291;28;20181;-71
2023/12/20 06:33:15;;;;;;;5.83;3.30;;;6.20;1.00;;;;;;5028251;28;20184;-71
2023/12/20 06:35:40;;;;;;;4.30;3.33;;;6.30;1.00;;;;;;5027816;28;20521;-72
2023/12/20 06:38:06;;;;;;;5.70;3.70;;;6.40;1.00;;;;;;5028527;28;20177;-70
2023/12/20 06:40:32;;;;;;;4.43;2.70;;;6.40;1.00;;;;;;5028530;28;20194;-72
2023/12/20 06:42:57;;;;;;;4.40;3.00;;;6.50;1.00;;;;;;5029531;28;20181;-71
2023/12/20 06:45:23;;;;;;;7.33;2.80;;;6.50;1.00;;;;;;5025699;28;20429;-71
2023/12/20 06:47:48;;;;;;;6.20;3.40;;;6.80;1.00;;;;;;5019424;28;20204;-71
2023/12/20 06:50:14;;;;;;;5.60;3.40;;;6.60;1.00;;;;;;5025448;28;20208;-71
2023/12/20 06:52:39;;;;;;;4.80;3.10;;;6.60;1.00;;;;;;5005531;28;20731;-71
2023/12/20 06:55:05;;;;;;;5.97;3.27;;;6.60;1.00;;;;;;5025037;28;20267;-71
2023/12/20 06:57:31;;;;;;;7.10;3.20;;;6.60;1.00;;;;;;5029238;28;20189;-71
2023/12/20 06:59:57;;;;;;;4.53;3.10;;;7.00;1.00;;;;;;5026777;28;20190;-71
2023/12/20 07:02:23;;;;;;;6.50;2.87;;;6.50;1.00;;;;;;5020012;28;20185;-70
2023/12/20 07:04:48;;;;;;;6.60;3.10;;;6.50;1.00;;;;;;5028143;28;20440;-71
2023/12/20 07:07:14;;;;;;;6.03;2.87;;;6.50;1.00;;;;;;5028528;28;20201;-74
2023/12/20 07:09:42;;;;;;;5.13;3.13;;;6.40;1.00;;;;;;5028493;28;20616;-72
2023/12/20 07:12:08;;;;;;;4.87;3.03;;;6.80;1.00;;;;;;5023348;28;20499;-71
2023/12/20 07:14:33;;;;;;;4.37;3.13;;;6.30;1.00;;;;;;5027354;28;20445;-72
2023/12/20 07:16:59;;;;;;;5.93;3.20;;;6.30;1.00;;;;;;5029000;28;20667;-72
2023/12/20 07:19:24;;;;;;;4.80;3.00;;;6.20;1.00;;;;;;5021092;28;20193;-70
2023/12/20 07:21:50;;;;;;;4.70;3.17;;;6.10;1.00;;;;;;5015081;28;20205;-72
2023/12/20 07:24:15;;;;;;;4.13;3.10;;;6.00;1.00;;;;;;5026479;28;20177;-72
2023/12/20 07:26:41;;;;;;;4.70;2.90;;;6.00;1.00;;;;;;5030983;28;20695;-71
2023/12/20 07:29:06;;;;;;;5.53;3.70;;;6.10;1.00;;;;;;5037696;28;20186;-70
2023/12/20 07:31:32;;;;;;;7.27;4.13;;;6.50;1.00;;;;;;5027101;28;20865;-72
2023/12/20 07:33:57;;;;;;;4.57;3.17;;;5.80;1.00;;;;;;5027569;28;20264;-71
2023/12/20 07:36:23;;;;;;;3.87;2.67;;;5.80;1.00;;;;;;5025758;28;20304;-73
2023/12/20 07:38:48;;;;;;;4.90;3.03;;;6.00;1.00;;;;;;5026117;28;20182;-72
2023/12/20 07:41:15;;;;;;;4.63;3.03;;;6.20;1.00;;;;;;5031895;28;20263;-72
2023/12/20 07:43:41;;;;;;;5.50;2.93;;;5.70;1.00;;;;;;5031480;28;20654;-72
2023/12/20 07:46:08;;;;;;;6.13;3.30;;;5.60;1.00;;;;;;5030570;28;20536;-70
2023/12/20 07:48:36;;;;;;;5.17;3.77;;;5.60;1.00;;;;;;5029208;28;20209;-71
2023/12/20 07:51:02;;;;;;;8.37;4.07;;;5.60;1.00;;;;;;5028699;28;20429;-73
2023/12/20 07:53:28;;;;;;;4.53;3.17;;;5.60;1.00;;;;;;5019493;28;20452;-71
2023/12/20 07:55:55;;;;;;;5.33;3.60;;;5.60;1.00;;;;;;5027423;28;20523;-74
2023/12/20 07:58:20;;;;;;;5.17;3.70;;;5.70;1.00;;;;;;5029300;28;20182;-74
2023/12/20 08:00:46;;;;;;;6.43;3.73;;;5.70;1.00;;;;;;5003440;28;20421;-70
2023/12/20 08:03:11;;;;;;;5.30;3.60;;;5.70;1.00;;;;;;5023854;28;20265;-70
2023/12/20 08:05:40;;;;;;;5.40;3.70;;;5.70;1.00;;;;;;5028525;28;20281;-71
2023/12/20 08:08:06;;;;;;;6.63;3.97;;;5.70;1.00;;;;;;5028388;28;20264;-72
2023/12/20 08:10:32;;;;;;;4.07;3.07;;;5.80;1.00;;;;;;5026922;28;20482;-73
2023/12/20 08:12:57;;;;;;;5.67;3.50;;;5.80;1.00;;;;;;5024752;28;20420;-74
2023/12/20 08:15:23;;;;;;;5.40;3.30;;;5.80;1.00;;;;;;5024798;28;20220;-73
2023/12/20 08:17:50;;;;;;;3.97;2.77;;;5.80;1.00;;;;;;5009141;28;20227;-73
2023/12/20 08:20:16;;;;;;;5.53;3.20;;;6.00;1.00;;;;;;5030747;28;20257;-75
2023/12/20 08:22:42;;;;;;;5.30;3.07;;;5.70;1.00;;;;;;5028501;28;20557;-73
2023/12/20 08:25:08;;;;;;;8.20;3.00;;;5.80;1.00;;;;;;5029611;28;20718;-73
2023/12/20 08:27:36;;;;;;;5.17;3.50;;;5.80;1.00;;;;;;5026369;28;20182;-74
2023/12/20 08:30:01;;;;;;;5.20;3.30;;;5.90;1.00;;;;;;5028030;28;20474;-74
2023/12/20 08:32:27;;;;;;;7.10;2.90;;;6.10;1.00;;;;;;5027487;28;20840;-74
2023/12/20 08:34:52;;;;;;;4.37;2.90;;;6.30;1.00;;;;;;5030398;28;20591;-69
2023/12/20 08:37:18;;;;;;;5.83;3.20;;;6.70;1.00;;;;;;5024377;28;20209;-73
2023/12/20 08:39:44;;;;;;;3.67;2.20;;;6.40;1.00;;;;;;5031520;28;20261;-73
2023/12/20 08:42:09;;;;;;;3.70;2.30;;;6.40;1.00;;;;;;5025623;28;20228;-73
2023/12/20 08:44:35;;;;;;;4.10;2.80;;;6.50;1.00;;;;;;5026879;28;20217;-72
2023/12/20 08:47:00;;;;;;;2.27;2.07;;;6.80;1.00;;;;;;5023586;28;20273;-73
2023/12/20 08:49:27;;;;;;;2.70;2.07;;;7.00;1.00;;;;;;5030378;28;20611;-73
2023/12/20 08:51:53;;;;;;;4.00;2.70;;;6.60;1.00;;;;;;5026581;28;20260;-73
2023/12/20 08:54:19;;;;;;;6.40;2.90;;;6.50;1.00;;;;;;5029425;28;20865;-73
2023/12/20 08:56:45;;;;;;;4.07;2.97;;;6.50;1.00;;;;;;5026753;28;20202;-74
2023/12/20 08:59:11;;;;;;;4.60;3.30;;;6.60;1.00;;;;;;5028814;28;20432;-72
2023/12/20 09:01:37;;;;;;;11.13;3.70;;;6.60;1.00;;;;;;5021987;28;20447;-73
2023/12/20 09:04:03;;;;;;;4.73;3.30;;;6.50;1.00;;;;;;5027826;28;20429;-72
2023/12/20 09:06:28;;;;;;;7.03;3.73;;;6.50;1.00;;;;;;5021960;28;20210;-73
2023/12/20 09:08:54;;;;;;;7.03;3.93;;;7.00;1.00;;;;;;5030542;28;20186;-74
2023/12/20 09:11:19;;;;;;;5.23;3.80;;;6.90;1.00;;;;;;5030028;28;20636;-73
2023/12/20 09:13:45;;;;;;;5.87;4.20;;;6.40;1.00;;;;;;5027720;28;20186;-72
2023/12/20 09:16:10;;;;;;;6.63;3.73;;;6.40;1.00;;;;;;5029148;28;20218;-74
2023/12/20 09:18:36;;;;;;;5.77;3.80;;;6.50;1.00;;;;;;5030262;28;20197;-72
2023/12/20 09:21:02;;;;;;;5.00;3.37;;;6.50;1.00;;;;;;5024642;28;20266;-74
2023/12/20 09:23:27;;;;;;;5.87;3.60;;;6.50;1.00;;;;;;5029998;28;20189;-72
2023/12/20 09:25:53;;;;;;;6.57;3.60;;;6.90;1.00;;;;;;5030157;28;20845;-72
2023/12/20 09:28:18;;;;;;;4.50;3.13;;;7.80;1.00;;;;;;5029955;28;20182;-74
2023/12/20 09:30:45;;;;;;;5.50;3.30;;;9.00;1.00;;;;;;5028438;28;20406;-74
2023/12/20 09:33:11;;;;;;;5.13;3.07;;;10.60;1.00;;;;;;5026947;28;20185;-73
2023/12/20 09:35:37;;;;;;;5.83;3.30;;;11.60;1.00;;;;;;5021281;28;20888;-74
2023/12/20 09:38:02;;;;;;;5.80;3.67;;;12.20;1.00;;;;;;5029846;28;20182;-73
2023/12/20 09:40:31;;;;;;;10.00;2.97;;;13.30;1.00;;;;;;5029457;28;20277;-71
2023/12/20 09:43:02;;;;;;;3.40;2.60;;;13.10;1.00;;;;;;5027217;28;20188;-72
2023/12/20 09:45:30;;;;;;;3.30;2.70;;;12.70;1.00;;;;;;5019882;28;20453;-72
2023/12/20 09:47:57;;;;;;;5.87;2.97;;;12.00;1.00;;;;;;5029497;28;20923;-71
2023/12/20 09:50:23;;;;;;;4.77;2.50;;;12.80;1.00;;;;;;5026752;28;20443;-73
2023/12/20 09:52:50;;;;;;;6.80;3.00;;;12.80;1.00;;;;;;5029286;28;20417;-71
2023/12/20 09:55:18;;;;;;;4.20;2.37;;;13.40;1.00;;;;;;5028820;28;20213;-71
2023/12/20 09:57:44;;;;;;;3.37;2.30;;;12.90;1.00;;;;;;5028705;28;20433;-71
2023/12/20 10:00:11;;;;;;;6.73;2.23;;;12.90;1.00;;;;;;5023159;28;20416;-69
2023/12/20 10:02:41;;;;;;;6.47;2.67;;;13.20;1.00;;;;;;5025173;28;20189;-71
2023/12/20 10:05:10;;;;;;;4.03;2.37;;;13.00;1.00;;;;;;5021131;28;20508;-68
2023/12/20 10:07:36;;;;;;;3.87;2.20;;;13.60;1.00;;;;;;5026709;28;20768;-69
2023/12/20 10:10:02;;;;;;;4.53;2.10;;;14.50;1.00;;;;;;5028812;28;20478;-70
2023/12/20 10:12:27;;;;;;;2.67;1.80;;;14.50;1.00;;;;;;5026652;28;20240;-71
2023/12/20 10:14:53;;;;;;;6.10;2.17;;;15.10;1.00;;;;;;5029193;28;20588;-71
2023/12/20 10:17:18;;;;;;;5.33;2.20;;;15.00;1.00;;;;;;5026903;28;20198;-70
2023/12/20 10:19:44;;;;;;;3.90;2.27;;;16.20;1.00;;;;;;5028448;28;20185;-72
2023/12/20 10:22:10;;;;;;;4.60;2.20;;;17.10;1.00;;;;;;5027570;28;20181;-72
2023/12/20 10:24:36;;;;;;;7.00;2.60;;;16.80;1.00;;;;;;5027716;28;20229;-71
2023/12/20 10:27:04;;;;;;;4.17;2.10;;;16.50;1.00;;;;;;5023994;28;20872;-73
2023/12/20 10:29:37;;;;;;;8.53;2.17;;;15.10;1.00;;;;;;5025543;28;20247;-70
2023/12/20 10:32:25;;;;;;;5.97;2.30;;;15.60;1.00;;;;;;5022684;28;20413;-69
2023/12/20 10:34:52;;;;;;;6.30;2.40;;;17.90;1.00;;;;;;5026261;28;20439;-73
2023/12/20 10:37:18;;;;;;;7.70;2.60;;;18.10;1.00;;;;;;5026021;28;20949;-71
2023/12/20 10:39:47;;;;;;;8.70;2.27;;;18.30;1.00;;;;;;5028176;28;20424;-70
2023/12/20 10:42:14;;;;;;;5.00;2.50;;;18.90;1.00;;;;;;5025620;28;20235;-71
2023/12/20 10:44:39;;;;;;;4.67;2.10;;;20.10;1.00;;;;;;5025659;28;20456;-71
2023/12/20 10:47:06;;;;;;;5.10;2.30;;;20.10;1.00;;;;;;5025158;28;21109;-70
2023/12/20 10:49:33;;;;;;;5.10;2.10;;;19.70;1.00;;;;;;5026932;28;20185;-71
2023/12/20 10:52:02;;;;;;;5.70;2.20;;;17.80;1.00;;;;;;5024558;28;21063;-71
2023/12/20 10:54:27;;;;;;;4.90;2.40;;;14.40;1.00;;;;;;5027816;28;21053;-71
2023/12/20 10:56:54;;;;;;;7.87;2.40;;;14.20;1.00;;;;;;5028414;28;20547;-71
2023/12/20 10:59:22;;;;;;;5.50;1.50;;;12.60;1.00;;;;;;5027407;28;20189;-73
2023/12/20 11:01:49;;;;;;;3.43;1.70;;;11.30;1.00;;;;;;5028002;28;20432;-73
2023/12/20 11:04:22;;;;;;;5.53;1.97;;;10.50;1.00;;;;;;5027521;28;20436;-72
2023/12/20 11:06:54;;;;;;;3.07;1.80;;;10.40;1.00;;;;;;5028033;28;20802;-75
2023/12/20 11:09:27;;;;;;;4.53;1.90;;;10.10;1.00;;;;;;5028767;28;20980;-72
2023/12/20 11:12:04;;;;;;;5.63;1.97;;;9.90;1.00;;;;;;5020357;28;20575;-72
2023/12/20 11:14:51;;;;;;;9.63;2.50;;;9.40;1.00;;;;;;5023106;28;20527;-72
2023/12/20 11:17:17;;;;;;;5.33;2.07;;;9.30;1.00;;;;;;5026406;28;20439;-73
2023/12/20 11:19:58;;;;;;;3.57;2.00;;;9.40;1.00;;;;;;5022982;28;20507;-72
2023/12/20 11:22:34;;;;;;;5.10;1.90;;;9.20;1.00;;;;;;5028861;28;20420;-71
2023/12/20 11:25:11;;;;;;;4.40;1.97;;;9.40;1.00;;;;;;5018804;28;20440;-71
2023/12/20 11:28:12;;;;;;;4.80;1.60;;;9.40;1.00;;;;;;5028410;28;20888;-72
2023/12/20 11:30:42;;;;;;;3.10;1.67;;;10.90;1.00;;;;;;5023603;28;20508;-73
2023/12/20 11:33:08;;;;;;;3.90;1.90;;;9.10;1.00;;;;;;5026652;28;20421;-73
2023/12/20 11:35:35;;;;;;;4.07;2.60;;;9.00;1.00;;;;;;5008985;28;20468;-73
2023/12/20 11:38:00;;;;;;;2.33;1.60;;;9.20;1.00;;;;;;5025032;28;20432;-72
2023/12/20 11:40:26;;;;;;;8.97;1.80;;;9.30;1.00;;;;;;5025955;28;20416;-72
2023/12/20 11:42:53;;;;;;;4.47;1.63;;;9.30;1.00;;;;;;5026960;28;20182;-71
2023/12/20 11:45:21;;;;;;;4.50;2.40;;;9.30;1.00;;;;;;5024603;28;20676;-71
2023/12/20 11:47:49;;;;;;;3.50;2.30;;;9.30;1.00;;;;;;5023778;28;20429;-71
2023/12/20 11:50:15;;;;;;;3.50;1.80;;;9.40;1.00;;;;;;5024327;28;20429;-71
2023/12/20 11:52:41;;;;;;;6.80;1.80;;;9.30;1.00;;;;;;5024543;28;20436;-72
2023/12/20 11:55:06;;;;;;;15.80;2.30;;;9.50;1.00;;;;;;5022316;28;20467;-72
2023/12/20 11:57:33;;;;;;;6.50;2.00;;;9.40;1.00;;;;;;5028032;28;20188;-70
2023/12/20 11:59:59;;;;;;;4.37;2.60;;;9.30;1.00;;;;;;5025308;28;20235;-72
2023/12/20 12:02:24;;;;;;;4.87;1.83;;;9.20;1.00;;;;;;5026982;28;20930;-72
2023/12/20 12:04:52;;;;;;;6.00;2.47;;;9.40;1.00;;;;;;5027134;28;20206;-73
2023/12/20 12:07:18;;;;;;;6.80;2.47;;;9.50;1.00;;;;;;5025978;28;20413;-71
2023/12/20 12:09:45;;;;;;;3.03;2.03;;;9.80;1.00;;;;;;5027495;28;20437;-71
2023/12/20 12:12:11;;;;;;;4.17;2.47;;;10.00;1.00;;;;;;5029802;28;20182;-73
2023/12/20 12:14:38;;;;;;;8.80;3.10;;;9.60;1.00;;;;;;5029150;28;20444;-71
2023/12/20 12:17:04;;;;;;;4.60;2.40;;;9.60;1.00;;;;;;5027843;28;20704;-72
2023/12/20 12:19:35;;;;;;;2.73;2.00;;;9.30;1.00;;;;;;5011063;28;20940;-72
2023/12/20 12:22:16;;;;;;;4.70;2.20;;;9.00;1.00;;;;;;5011937;28;20432;-72
2023/12/20 12:24:42;;;;;;;5.32;2.50;;;8.70;1.00;;;;;;5048319;22;20522;-74
2023/12/20 12:27:08;;;;;;;3.93;2.27;;;8.70;1.00;;;;;;5030784;28;20272;-74
2023/12/20 12:29:34;;;;;;;6.57;3.07;;;8.50;1.00;;;;;;5014180;28;20217;-74
2023/12/20 12:32:00;;;;;;;3.40;2.23;;;8.40;1.00;;;;;;5032163;28;20460;-73
2023/12/20 12:34:29;;;;;;;4.60;1.97;;;8.20;1.00;;;;;;5014470;28;20452;-75
2023/12/20 12:36:56;;;;;;;6.53;2.63;;;8.20;1.00;;;;;;5014148;28;20460;-72
2023/12/20 12:39:24;;;;;;;3.87;2.20;;;8.20;1.00;;;;;;5014610;28;21022;-74
2023/12/20 12:41:50;;;;;;;8.57;2.43;;;8.10;1.00;;;;;;5031991;28;20546;-74
2023/12/20 12:44:16;;;;;;;7.43;3.00;;;8.10;1.00;;;;;;5032282;28;20532;-74
2023/12/20 12:46:41;;;;;;;5.63;2.03;;;8.10;1.00;;;;;;5031704;28;20189;-74
2023/12/20 12:49:07;;;;;;;9.90;2.53;;;8.10;1.00;;;;;;5032429;28;20186;-73
2023/12/20 12:51:32;;;;;;;6.37;2.70;;;8.10;1.00;;;;;;5014492;28;20178;-73
2023/12/20 12:53:58;;;;;;;6.77;2.30;;;8.10;1.00;;;;;;5014234;28;20209;-74
2023/12/20 12:56:23;;;;;;;6.47;2.80;;;9.10;1.00;;;;;;5014056;28;20205;-73
2023/12/20 12:58:49;;;;;;;5.43;2.50;;;8.00;1.00;;;;;;5038584;28;20181;-74
2023/12/20 13:01:15;;;;;;;4.20;2.50;;;8.00;1.00;;;;;;5031667;28;20186;-74